KAGS/AGS METAR and TAF weather

Enter ICAO airport designator
Station Type Date Time Source
KAGS METAR 2018/01/22 19:53 UTC NOAA

KAGS 221953Z 13006KT 10SM BKN032 BKN060 22/14 A3002 RMK AO2 SLP165 T02170139


Station Type Date Time Source
KAGS Decoded METAR 2018/01/22 19:53 UTC NOAA

AUGUSTA BUSH FIELD, GA, United States (KAGS) 33-22N 081-58W 44M
Jan 22, 2018 - 02:53 PM EST / 2018.01.22 1953 UTC
Wind: from the SE (130 degrees) at 7 MPH (6 KT):0
Visibility: 10 mile(s):0
Sky conditions: mostly cloudy
Temperature: 71.1 F (21.7 C)
Dew Point: 57.0 F (13.9 C)
Relative Humidity: 61%
Pressure (altimeter): 30.02 in. Hg (1016 hPa)
ob: KAGS 221953Z 13006KT 10SM BKN032 BKN060 22/14 A3002 RMK AO2 SLP165 T02170139
cycle: 20

Station Type Date Time Source
KAGS TAF 2018/01/22 19:30 UTC NOAA

TAF
AMD KAGS 221929Z 2219/2318 15005KT P6SM SCT025 BKN050
FM230000 16007KT P6SM VCSH OVC025
FM230300 19010G16KT 5SM -SHRA OVC010 WS010/19035KT
FM231200 23012G17KT P6SM OVC015
FM231600 28012G20KT P6SM SCT015


Example: see airport list